05:22
Airports
Links
Donate
Help keep this website running!
PayPal
Bitcoin
METAR
PHNL 280453Z 06014KT 10SM FEW028 SCT042 BKN200 27/18 A3006 RMK AO2 SLP179 T02670183
Current Weather Conditions at PHNL
VFR 04:53:00 28-06-17
Automated station
Altimeter:30.06 hg
Temp:26.7°c 79°f
Dew point:18.3°c 64°f
Wind:14 knots, 16.1 mph, 7 m/s, from 60°
Visibility:10.0 statute miles
20000(BKN) Broken
4200(SCT) Scattered
2800(FEW) A few
Past METAR reports
VFR 03:53:00 28-06-17
Automated station
Altimeter:30.05 hg
Temp:27.2°c 81°f
Dew point:17.2°c 63°f
Wind:16 knots, 18.4 mph, 8 m/s, from 60°
Visibility:10.0 statute miles
20000(BKN) Broken
4000(FEW) A few
3100(FEW) A few
PHNL 280353Z 06016G22KT 10SM FEW031 FEW040 BKN200 27/17 A3005 RMK AO2 SLP175 T02720172
VFR 02:53:00 28-06-17
Automated station
Altimeter:30.04 hg
Temp:27.8°c 81°f
Dew point:17.8°c 63°f
Wind:13 knots, 15 mph, 7 m/s, from 50°
Visibility:10.0 statute miles
20000(BKN) Broken
4500(SCT) Scattered
3200(FEW) A few
PHNL 280253Z 05013KT 10SM FEW032 SCT045 BKN200 28/18 A3004 RMK AO2 SLP173 T02780178 55004
VFR 01:53:00 28-06-17
Automated station
Altimeter:30.04 hg
Temp:28.9°c 82°f
Dew point:17.8°c 63°f
Wind:14 knots, 16.1 mph, 7 m/s, from 60°
Visibility:10.0 statute miles
20000(BKN) Broken
4100(SCT) Scattered
2700(FEW) A few
PHNL 280153Z 06014G23KT 10SM FEW027 SCT041 BKN200 29/18 A3004 RMK AO2 SLP173 T02890178
VFR 00:53:00 28-06-17
Automated station
Altimeter:30.05 hg
Temp:28.9°c 82°f
Dew point:17.8°c 63°f
Wind:13 knots, 15 mph, 7 m/s, from 60°
Visibility:10.0 statute miles
20000(BKN) Broken
4300(SCT) Scattered
2500(FEW) A few
PHNL 280053Z 06013G26KT 10SM FEW025 SCT043 BKN200 29/18 A3005 RMK AO2 PK WND 07026/0004 SLP174 T02890178
VFR 23:53:00 27-06-17
Automated station
Altimeter:30.06 hg
Temp:29.4°c 84°f
Dew point:17.8°c 63°f
Wind:14 knots, 16.1 mph, 7 m/s, from 80°
Visibility:10.0 statute miles
20000(BKN) Broken
4500(SCT) Scattered
2500(FEW) A few
PHNL 272353Z 08014G26KT 10SM FEW025 SCT045 BKN200 29/18 A3006 RMK AO2 PK WND 05026/2338 SLP177 T02940178 10306 20267 56008
TAF
PHNL 280256Z 2803/2906 06015KT P6SM FEW025 SCT050 BKN200 FM280500 05011KT P6SM SCT040 BKN200 FM281900 06015G24KT P6SM FEW025 SCT050 FM290500 05011KT P6SM FEW025 SCT050
Forecast at PHNL
03:00 28-06-17 to 05:00 28-06-17
Wind:15 Knots from 60°
Visibility:6.21 statute miles
2500FEW A few
5000SCT Scattered
20000BKN Broken
FM 05:00 28-06-17 to 19:00 28-06-17
Wind:11 Knots from 50°
Visibility:6.21 statute miles
4000SCT Scattered
20000BKN Broken
FM 19:00 28-06-17 to 05:00 29-06-17
Wind:15 Knots from 60°
Visibility:6.21 statute miles
2500FEW A few
5000SCT Scattered
FM 05:00 29-06-17 to 06:00 29-06-17
Wind:11 Knots from 50°
Visibility:6.21 statute miles
2500FEW A few
5000SCT Scattered